^^
Saratoga-Weather Station Historical Data
Daily Summary for December 28, 2021 Units:  English    Metric   Both
Daily Weekly Monthly Yearly Custom
  High: Low: Average:
Temperature: 51.4 °F 46 °F 48.7 °F
Dew Point: 49.5 °F 43 °F 46.2 °F
Humidity: 97% 75% 91%
Wind Speed: 17mph 0mph 4.5mph
Wind Gust: 23mph - -
Wind- - SW
Pressure: 29.6 in 29.3 in -
Precipitation: 0.65 in    
Historical Graphs
 
 
Tabular Data for December 28, 2021
Time Temperature Dew Point Pressure Wind Wind Speed Wind Gust Humidity Rainfall Rate (Hourly) solar
00:02 48.7 °F 46.8 °F 29.5 in North 4 mph 7 mph 93% 0 in 0 W/m2
00:07 48.6 °F 46.6 °F 29.5 in NNE 2 mph 3 mph 93% 0 in 0 W/m2
00:12 48.6 °F 46.6 °F 29.5 in North 0.9 mph 5 mph 93% 0 in 0 W/m2
00:17 48.6 °F 46.6 °F 29.5 in NNE 2 mph 4 mph 93% 0 in 0 W/m2
00:22 48.6 °F 46.4 °F 29.5 in NNW 2 mph 4 mph 92% 0 in 0 W/m2
00:27 48.6 °F 46.4 °F 29.5 in Calm   2 mph 92% 0 in 0 W/m2
00:32 48.6 °F 46.4 °F 29.5 in Calm   4 mph 92% 0 in 0 W/m2
00:37 48.6 °F 46.4 °F 29.5 in East 2.9 mph 4 mph 92% 0 in 0 W/m2
00:42 48.4 °F 46.2 °F 29.5 in ESE 4 mph 7 mph 92% 0 in 0 W/m2
00:47 47.8 °F 45.7 °F 29.5 in East 4 mph 8 mph 92% 0 in 0 W/m2
00:52 47.3 °F 45.3 °F 29.5 in East 2 mph 4 mph 93% 0 in 0 W/m2
00:57 46.9 °F 45 °F 29.5 in East 2.9 mph 8 mph 93% 0 in 0 W/m2
01:02 46.8 °F 44.8 °F 29.5 in East 4.9 mph 5 mph 93% 0 in 0 W/m2
01:07 46.8 °F 45.1 °F 29.5 in ENE 2 mph 5 mph 94% 0 in 0 W/m2
01:12 46.6 °F 45 °F 29.5 in ENE 2 mph 3 mph 94% 0 in 0 W/m2
01:17 46.6 °F 45 °F 29.5 in NE 2 mph 5 mph 94% 0 in 0 W/m2
01:22 46.6 °F 45 °F 29.5 in NE 2 mph 5 mph 94% 0 in 0 W/m2
01:27 46.6 °F 45 °F 29.5 in East 4 mph 8 mph 94% 0 in 0 W/m2
01:32 46.8 °F 45.1 °F 29.5 in ENE 4 mph 4 mph 94% 0 in 0 W/m2
01:37 46.8 °F 45.3 °F 29.5 in ESE 8.1 mph 8 mph 95% 0 in 0 W/m2
01:42 46.9 °F 45.3 °F 29.4 in East 2.9 mph 5 mph 94% 0 in 0 W/m2
01:47 46.9 °F 45.3 °F 29.4 in NE 2 mph 7 mph 94% 0 in 0 W/m2
01:52 46.8 °F 45.1 °F 29.4 in Calm   4 mph 94% 0 in 0 W/m2
01:57 46.8 °F 45.3 °F 29.4 in ENE 2.9 mph 7 mph 95% 0 in 0 W/m2
02:02 46.8 °F 45.1 °F 29.4 in NE 2.9 mph 4 mph 94% 0 in 0 W/m2
02:07 46.8 °F 45.3 °F 29.4 in NNE 2 mph 4 mph 95% 0 in 0 W/m2
02:12 46.8 °F 45.3 °F 29.4 in ESE 2 mph 6 mph 95% 0 in 0 W/m2
02:17 46.9 °F 45.5 °F 29.4 in North 0.9 mph 6 mph 95% 0 in 0 W/m2
02:22 46.9 °F 45.5 °F 29.4 in Calm   6 mph 95% 0 in 0 W/m2
02:27 46.9 °F 45.5 °F 29.4 in East 0.9 mph 2 mph 95% 0 in 0 W/m2
02:33 46.9 °F 45.3 °F 29.4 in ENE 2 mph 6 mph 94% 0.01 in 0 W/m2
02:38 46.8 °F 45.1 °F 29.4 in Calm     94% 0.01 in 0 W/m2
02:43 46.6 °F 45 °F 29.4 in East 0.9 mph 3 mph 94% 0.01 in 0 W/m2
02:48 46.6 °F 45.1 °F 29.4 in ENE 2.9 mph 4 mph 95% 0.01 in 0 W/m2
02:53 46.4 °F 45 °F 29.4 in ENE 2.9 mph 3 mph 95% 0.01 in 0 W/m2
02:58 46.2 °F 44.8 °F 29.4 in ESE 0.9 mph 3 mph 95% 0.01 in 0 W/m2
03:03 46.2 °F 44.8 °F 29.4 in East 0.9 mph 2 mph 95% 0.01 in 0 W/m2
03:08 46.2 °F 44.8 °F 29.4 in NE 0.9 mph 4 mph 95% 0.02 in 0 W/m2
03:13 46.2 °F 44.8 °F 29.4 in NE 2 mph 3 mph 95% 0.02 in 0 W/m2
03:18 46.4 °F 45 °F 29.4 in East 2 mph 3 mph 95% 0.04 in 0 W/m2
03:23 46.4 °F 45 °F 29.4 in ENE 2 mph 3 mph 95% 0.04 in 0 W/m2
03:28 46.4 °F 45 °F 29.4 in East 2 mph 4 mph 95% 0.05 in 0 W/m2
03:33 46.6 °F 45.1 °F 29.4 in ESE 0.9 mph 4 mph 95% 0.04 in 0 W/m2
03:38 46.6 °F 45.5 °F 29.4 in East 0.9 mph 2 mph 96% 0.05 in 0 W/m2
03:43 46.6 °F 45.5 °F 29.4 in ESE 2 mph 7 mph 96% 0.05 in 0 W/m2
03:48 46.6 °F 45.5 °F 29.4 in East 0.9 mph 4 mph 96% 0.06 in 0 W/m2
03:53 46.6 °F 45.5 °F 29.4 in East 2.9 mph 4 mph 96% 0.06 in 0 W/m2
03:58 46.8 °F 45.7 °F 29.4 in ESE 2.9 mph 7 mph 96% 0.06 in 0 W/m2
04:03 46.8 °F 45.7 °F 29.4 in ENE 0.9 mph 6 mph 96% 0.07 in 0 W/m2
04:08 46.8 °F 45.7 °F 29.4 in ENE 4.9 mph 6 mph 96% 0.06 in 0 W/m2
04:13 46.9 °F 45.9 °F 29.4 in Calm   3 mph 96% 0.06 in 0 W/m2
04:18 46.9 °F 45.5 °F 29.4 in NE 4 mph 6 mph 95% 0.05 in 0 W/m2
04:23 46.9 °F 45.5 °F 29.4 in East 4 mph 5 mph 95% 0.06 in 0 W/m2
04:28 46.9 °F 45.5 °F 29.4 in East 4 mph 8 mph 95% 0.05 in 0 W/m2
04:33 46.9 °F 45.5 °F 29.4 in ESE 2 mph 7 mph 95% 0.07 in 0 W/m2
04:38 46.9 °F 45.5 °F 29.4 in East 4.9 mph 5 mph 95% 0.08 in 0 W/m2
04:43 46.9 °F 45.5 °F 29.4 in East 6 mph 8 mph 95% 0.1 in 0 W/m2
04:48 46.9 °F 45.5 °F 29.4 in ENE 2.9 mph 7 mph 95% 0.11 in 0 W/m2
04:53 46.9 °F 45.5 °F 29.4 in ENE 2 mph 7 mph 95% 0.13 in 0 W/m2
04:58 46.8 °F 45.3 °F 29.4 in ENE 2 mph 3 mph 95% 0.14 in 0 W/m2
05:03 46.8 °F 45.3 °F 29.4 in East 2 mph 7 mph 95% 0.15 in 0 W/m2
05:08 46.8 °F 45.3 °F 29.4 in ENE 2 mph 3 mph 95% 0.17 in 0 W/m2
05:13 46.8 °F 45.3 °F 29.4 in ENE 2 mph 4 mph 95% 0.19 in 0 W/m2
05:18 46.6 °F 45.5 °F 29.4 in Calm   1 mph 96% 0.22 in 0 W/m2
05:23 46.6 °F 45.5 °F 29.4 in ENE 0.9 mph 2 mph 96% 0.24 in 0 W/m2
05:28 46.4 °F 45 °F 29.4 in Calm     95% 0.28 in 0 W/m2
05:33 46.2 °F 44.8 °F 29.4 in Calm     95% 0.28 in 0 W/m2
05:38 46.2 °F 45.1 °F 29.4 in Calm     96% 0.3 in 0 W/m2
05:43 46.2 °F 45.1 °F 29.3 in Calm   1 mph 96% 0.31 in 0 W/m2
05:48 46.2 °F 45.1 °F 29.3 in Calm     96% 0.32 in 0 W/m2
05:53 46 °F 45 °F 29.3 in Calm   1 mph 96% 0.31 in 0 W/m2
05:58 46 °F 45 °F 29.3 in Calm     96% 0.31 in 0 W/m2
06:03 46 °F 45 °F 29.3 in Calm     96% 0.3 in 0 W/m2
06:08 46 °F 45 °F 29.3 in East 0.9 mph 2 mph 96% 0.28 in 0 W/m2
06:13 46 °F 45 °F 29.3 in Calm     96% 0.27 in 0 W/m2
06:18 46 °F 45 °F 29.3 in Calm     96% 0.24 in 0 W/m2
06:23 46 °F 45 °F 29.3 in Calm     96% 0.21 in 0 W/m2
06:28 46 °F 45 °F 29.3 in North 0.9 mph 2 mph 96% 0.18 in 0 W/m2
06:33 46 °F 45 °F 29.3 in Calm     96% 0.15 in 0 W/m2
06:38 46.6 °F 45.9 °F 29.3 in WSW 0.9 mph 5 mph 97% 0.12 in 0 W/m2
06:43 47.1 °F 46.4 °F 29.3 in NNW 4 mph 9 mph 97% 0.08 in 0 W/m2
06:48 47.7 °F 46.9 °F 29.3 in NW 4 mph 5 mph 97% 0.06 in 0 W/m2
06:53 47.8 °F 46.9 °F 29.3 in WNW 0.9 mph 6 mph 97% 0.04 in 0 W/m2
06:58 48 °F 47.1 °F 29.4 in NW 4 mph 8 mph 97% 0.04 in 0 W/m2
07:03 48.4 °F 47.5 °F 29.3 in WNW 4 mph 9 mph 97% 0.03 in 0 W/m2
07:08 48.6 °F 47.7 °F 29.4 in NW 2 mph 6 mph 97% 0.02 in 0 W/m2
07:13 48.7 °F 47.8 °F 29.4 in WSW 4 mph 6 mph 97% 0.02 in 0 W/m2
07:18 48.7 °F 47.8 °F 29.4 in West 0.9 mph 5 mph 97% 0.02 in 0 W/m2
07:23 48.9 °F 47.8 °F 29.4 in WNW 2 mph 2 mph 96% 0.02 in 0 W/m2
07:28 48.9 °F 47.8 °F 29.4 in West 6 mph 7 mph 96% 0.02 in 0 W/m2
07:33 49.1 °F 48 °F 29.4 in West 2.9 mph 9 mph 96% 0.02 in 0 W/m2
07:38 49.3 °F 48.2 °F 29.4 in WNW 6.9 mph 9 mph 96% 0.02 in 0 W/m2
07:43 49.3 °F 48.2 °F 29.4 in West 11 mph 11 mph 96% 0.02 in 0 W/m2
07:48 49.5 °F 48.4 °F 29.4 in NW 6 mph 10 mph 96% 0.02 in 0 W/m2
07:53 49.5 °F 48.4 °F 29.4 in West 6.9 mph 12 mph 96% 0.02 in 0 W/m2
07:58 49.6 °F 48.6 °F 29.4 in WNW 4.9 mph 10 mph 96% 0.02 in 0 W/m2
08:03 49.6 °F 48.2 °F 29.4 in SW 2 mph 8 mph 95% 0.02 in 0 W/m2
08:08 49.6 °F 48.2 °F 29.4 in West 11 mph 11 mph 95% 0.02 in 0 W/m2
08:13 49.6 °F 48.2 °F 29.4 in NW 4.9 mph 10 mph 95% 0.01 in 0 W/m2
08:18 49.6 °F 48.2 °F 29.4 in WSW 4.9 mph 12 mph 95% 0.01 in 0 W/m2
08:23 49.6 °F 48.2 °F 29.4 in WSW 4.9 mph 8 mph 95% 0.01 in 0 W/m2
08:28 49.6 °F 48.2 °F 29.4 in WNW 8.1 mph 15 mph 95% 0.01 in 0 W/m2
08:33 49.8 °F 48.4 °F 29.4 in West 8.1 mph 13 mph 95% 0.01 in 0 W/m2
08:38 49.6 °F 48 °F 29.4 in West 8.1 mph 11 mph 94% 0.01 in 0 W/m2
08:43 49.6 °F 48 °F 29.4 in NNW 4 mph 8 mph 94% 0 in 0 W/m2
08:48 49.6 °F 48 °F 29.4 in West 2 mph 6 mph 94% 0 in 0 W/m2
08:53 49.6 °F 48 °F 29.4 in West 4 mph 11 mph 94% 0 in 5 W/m2
08:58 49.6 °F 48 °F 29.4 in NW 4 mph 7 mph 94% 0 in 7 W/m2
09:03 49.6 °F 48.2 °F 29.4 in WNW 2.9 mph 12 mph 95% 0 in 11 W/m2
09:08 49.6 °F 48.2 °F 29.4 in WNW 4 mph 9 mph 95% 0 in 12 W/m2
09:13 49.6 °F 48.2 °F 29.4 in NW 4 mph 10 mph 95% 0 in 9 W/m2
09:19 49.6 °F 48.2 °F 29.4 in WNW 2 mph 6 mph 95% 0 in 7 W/m2
09:24 49.6 °F 48.2 °F 29.4 in NW 2 mph 5 mph 95% 0 in 12 W/m2
09:29 49.6 °F 48.2 °F 29.4 in NW 0.9 mph 5 mph 95% 0 in 25 W/m2
09:34 49.6 °F 48.2 °F 29.4 in WSW 4 mph 7 mph 95% 0 in 46 W/m2
09:39 49.8 °F 48.4 °F 29.4 in NW 2.9 mph 11 mph 95% 0.01 in 18 W/m2
09:44 49.8 °F 48.4 °F 29.4 in West 0.9 mph 2 mph 95% 0.02 in 30 W/m2
09:49 49.8 °F 48.4 °F 29.4 in South 2.9 mph 11 mph 95% 0.02 in 32 W/m2
09:54 50 °F 48.6 °F 29.4 in WSW 2 mph 7 mph 95% 0.02 in 25 W/m2
09:59 50 °F 48.6 °F 29.4 in West 2.9 mph 8 mph 95% 0.02 in 42 W/m2
10:04 50 °F 48.6 °F 29.4 in WSW 2.9 mph 6 mph 95% 0.02 in 30 W/m2
10:09 50.2 °F 48.7 °F 29.4 in WNW 0.9 mph 11 mph 95% 0.02 in 33 W/m2
10:14 50.4 °F 48.9 °F 29.4 in NNE 2 mph 5 mph 95% 0.02 in 19 W/m2
10:19 50.4 °F 48.9 °F 29.4 in WNW 2.9 mph 11 mph 95% 0.02 in 56 W/m2
10:24 50.4 °F 48.9 °F 29.4 in WNW 6.9 mph 9 mph 95% 0.02 in 30 W/m2
10:29 50.5 °F 49.1 °F 29.4 in NNW 8.9 mph 11 mph 95% 0.02 in 35 W/m2
10:34 50.7 °F 49.1 °F 29.4 in WNW 4 mph 9 mph 94% 0.02 in 51 W/m2
10:39 50.7 °F 49.1 °F 29.4 in WSW 2 mph 6 mph 94% 0.02 in 62 W/m2
10:44 50.7 °F 49.1 °F 29.4 in NNW 4.9 mph 8 mph 94% 0.01 in 54 W/m2
10:49 50.9 °F 49.3 °F 29.4 in West 2.9 mph 5 mph 94% 0.01 in 58 W/m2
10:54 51.1 °F 49.5 °F 29.4 in WNW 11 mph 15 mph 94% 0.01 in 67 W/m2
10:59 51.3 °F 49.3 °F 29.4 in South 4 mph 6 mph 93% 0.01 in 84 W/m2
11:04 51.3 °F 49.3 °F 29.4 in West 4 mph 15 mph 93% 0.01 in 105 W/m2
11:09 51.4 °F 49.5 °F 29.4 in West 6 mph 11 mph 93% 0 in 76 W/m2
11:14 51.4 °F 49.3 °F 29.4 in NW 2 mph 14 mph 92% 0 in 98 W/m2
11:19 51.4 °F 49.3 °F 29.4 in NW 6 mph 12 mph 92% 0 in 86 W/m2
11:24 51.4 °F 49.3 °F 29.4 in WSW 4.9 mph 8 mph 92% 0 in 60 W/m2
11:29 51.4 °F 49.3 °F 29.4 in WNW 4 mph 12 mph 92% 0 in 62 W/m2
11:34 51.4 °F 49.3 °F 29.4 in NNW 0.9 mph 5 mph 92% 0 in 54 W/m2
11:39 51.4 °F 49.3 °F 29.4 in SSW 4.9 mph 11 mph 92% 0 in 62 W/m2
11:44 51.4 °F 49.3 °F 29.4 in NW 0.9 mph 7 mph 92% 0 in 44 W/m2
11:49 51.4 °F 49.3 °F 29.4 in WNW 2.9 mph 18 mph 92% 0 in 39 W/m2
11:54 51.3 °F 49.1 °F 29.4 in West 4 mph 10 mph 92% 0 in 47 W/m2
11:59 50.9 °F 48.7 °F 29.4 in WNW 0.9 mph 13 mph 92% 0 in 62 W/m2
12:04 50.9 °F 48.9 °F 29.4 in NW 2.9 mph 8 mph 93% 0 in 79 W/m2
12:09 50.9 °F 48.9 °F 29.4 in WNW 4 mph 9 mph 93% 0 in 113 W/m2
12:14 51.1 °F 49.1 °F 29.4 in WNW 4 mph 8 mph 93% 0 in 105 W/m2
12:19 51.1 °F 48.9 °F 29.4 in NNE 4 mph 12 mph 92% 0 in 74 W/m2
12:24 51.1 °F 48.9 °F 29.4 in WSW 4 mph 9 mph 92% 0 in 30 W/m2
12:29 51.3 °F 49.1 °F 29.4 in NW 4 mph 10 mph 92% 0 in 39 W/m2
12:34 51.3 °F 49.1 °F 29.4 in West 2.9 mph 14 mph 92% 0 in 47 W/m2
12:39 51.1 °F 48.9 °F 29.4 in West 8.1 mph 14 mph 92% 0 in 35 W/m2
12:44 51.1 °F 48.9 °F 29.4 in West 2.9 mph 10 mph 92% 0 in 28 W/m2
12:49 50.9 °F 48.7 °F 29.4 in NW 4.9 mph 14 mph 92% 0 in 19 W/m2
12:54 50.9 °F 48.7 °F 29.4 in West 6.9 mph 10 mph 92% 0 in 19 W/m2
12:59 50.7 °F 48.6 °F 29.4 in WNW 8.1 mph 9 mph 92% 0.01 in 32 W/m2
13:04 50.5 °F 48.6 °F 29.4 in West 6.9 mph 13 mph 93% 0.01 in 30 W/m2
13:09 50.5 °F 48.6 °F 29.4 in WSW 2 mph 8 mph 93% 0.01 in 35 W/m2
13:14 50.7 °F 48.6 °F 29.4 in WNW 2.9 mph 18 mph 92% 0.01 in 28 W/m2
13:19 50.7 °F 48.6 °F 29.4 in WSW 2 mph 6 mph 92% 0.01 in 32 W/m2
13:24 50.9 °F 48.7 °F 29.4 in West 2 mph 18 mph 92% 0.01 in 42 W/m2
13:29 50.9 °F 48.7 °F 29.4 in South 2 mph 8 mph 92% 0.01 in 46 W/m2
13:34 50.9 °F 48.7 °F 29.4 in West 6.9 mph 11 mph 92% 0.01 in 54 W/m2
13:39 51.1 °F 48.6 °F 29.4 in West 2 mph 10 mph 91% 0.01 in 72 W/m2
13:44 51.1 °F 48.6 °F 29.4 in West 4 mph 10 mph 91% 0.01 in 74 W/m2
13:49 51.3 °F 48.4 °F 29.4 in WNW 2 mph 8 mph 90% 0.01 in 74 W/m2
13:54 51.3 °F 48.4 °F 29.4 in WNW 4.9 mph 12 mph 90% 0.01 in 70 W/m2
13:59 51.3 °F 48.2 °F 29.4 in WNW 0.9 mph 12 mph 89% 0 in 69 W/m2
14:04 51.3 °F 48.2 °F 29.4 in WNW 0.9 mph 8 mph 89% 0 in 70 W/m2
14:09 51.4 °F 48 °F 29.4 in WSW 2.9 mph 15 mph 88% 0 in 49 W/m2
14:14 51.3 °F 47.8 °F 29.4 in WSW 8.1 mph 12 mph 88% 0 in 58 W/m2
14:19 51.3 °F 47.5 °F 29.4 in WNW 6.9 mph 15 mph 87% 0 in 67 W/m2
14:24 51.4 °F 47.5 °F 29.4 in WNW 4 mph 8 mph 86% 0 in 65 W/m2
14:29 51.4 °F 47.5 °F 29.4 in WNW 8.9 mph 12 mph 86% 0 in 51 W/m2
14:34 51.4 °F 47.1 °F 29.4 in West 4 mph 12 mph 85% 0 in 32 W/m2
15:17 50.7 °F 43.5 °F 29.4 in Calm     76% 0 in 26 W/m2
15:22 50.7 °F 43.2 °F 29.4 in West 12.1 mph 12 mph 75% 0 in 33 W/m2
15:29 50.5 °F 43 °F 29.4 in West 2 mph 8 mph 75% 0 in 26 W/m2
15:34 50.5 °F 43.3 °F 29.4 in NW 2.9 mph 9 mph 76% 0 in 28 W/m2
15:39 50.5 °F 43.5 °F 29.4 in West 4 mph 9 mph 77% 0 in 25 W/m2
15:44 50.5 °F 43.5 °F 29.4 in WNW 2 mph 13 mph 77% 0 in 23 W/m2
15:49 50.4 °F 43.3 °F 29.4 in South 12.1 mph 12 mph 77% 0 in 23 W/m2
15:54 50.4 °F 43.3 °F 29.4 in West 6 mph 13 mph 77% 0 in 21 W/m2
15:59 50.4 °F 43.2 °F 29.4 in WSW 4.9 mph 13 mph 76% 0 in 21 W/m2
16:04 50.2 °F 43.3 °F 29.4 in WNW 2.9 mph 13 mph 77% 0 in 19 W/m2
16:09 50.2 °F 43.3 °F 29.4 in West 2 mph 11 mph 77% 0 in 18 W/m2
16:14 50 °F 43.3 °F 29.4 in West 6.9 mph 13 mph 78% 0 in 16 W/m2
16:19 50 °F 43.7 °F 29.4 in West 2.9 mph 8 mph 79% 0 in 14 W/m2
16:24 49.8 °F 43.5 °F 29.4 in West 2 mph 7 mph 79% 0 in 12 W/m2
16:29 49.8 °F 43.9 °F 29.4 in WNW 0.9 mph 10 mph 80% 0 in 11 W/m2
16:34 49.6 °F 43.7 °F 29.4 in West 6.9 mph 7 mph 80% 0 in 7 W/m2
16:39 49.6 °F 43.7 °F 29.5 in West 10.1 mph 13 mph 80% 0 in 5 W/m2
16:44 49.8 °F 43.5 °F 29.5 in West 6.9 mph 10 mph 79% 0 in 5 W/m2
16:49 49.8 °F 43.5 °F 29.5 in NW 4.9 mph 10 mph 79% 0 in 0 W/m2
16:54 50 °F 43.3 °F 29.5 in West 2.9 mph 8 mph 78% 0 in 0 W/m2
16:59 50 °F 43.3 °F 29.5 in SSW 2.9 mph 8 mph 78% 0 in 0 W/m2
17:04 50.2 °F 43.5 °F 29.5 in West 2 mph 9 mph 78% 0 in 0 W/m2
17:09 50.2 °F 43.3 °F 29.5 in SW 4 mph 12 mph 77% 0 in 0 W/m2
17:14 50.4 °F 43.3 °F 29.5 in North 4.9 mph 8 mph 77% 0 in 0 W/m2
17:19 50.4 °F 43.3 °F 29.5 in West 2 mph 10 mph 77% 0 in 0 W/m2
17:24 50.4 °F 43.3 °F 29.5 in NW 2 mph 6 mph 77% 0 in 0 W/m2
17:29 50.4 °F 43.7 °F 29.5 in SW 2.9 mph 11 mph 78% 0 in 0 W/m2
17:34 50.4 °F 44.1 °F 29.5 in NNW 2 mph 7 mph 79% 0 in 0 W/m2
17:39 50.4 °F 44.4 °F 29.5 in WNW 6 mph 13 mph 80% 0 in 0 W/m2
17:44 50.2 °F 45 °F 29.5 in NNW 4 mph 6 mph 82% 0 in 0 W/m2
17:49 50.2 °F 45 °F 29.5 in West 4 mph 5 mph 82% 0 in 0 W/m2
17:54 49.8 °F 45.1 °F 29.5 in North 4 mph 5 mph 84% 0 in 0 W/m2
17:59 49.8 °F 45.1 °F 29.5 in NNE 4.9 mph 5 mph 84% 0 in 0 W/m2
18:04 49.8 °F 45.5 °F 29.5 in NNW 8.9 mph 10 mph 85% 0 in 0 W/m2
18:09 49.6 °F 45.7 °F 29.5 in NNW 2 mph 11 mph 86% 0 in 0 W/m2
18:14 49.5 °F 45.5 °F 29.5 in SW 0.9 mph 4 mph 86% 0 in 0 W/m2
18:19 49.3 °F 45.3 °F 29.5 in NW 8.1 mph 11 mph 86% 0 in 0 W/m2
18:24 49.5 °F 45.5 °F 29.5 in West 6 mph 8 mph 86% 0 in 0 W/m2
18:29 49.5 °F 45.5 °F 29.5 in West 6 mph 14 mph 86% 0 in 0 W/m2
18:34 49.5 °F 45.5 °F 29.5 in West 11 mph 11 mph 86% 0 in 0 W/m2
18:39 49.5 °F 45.1 °F 29.5 in SW 0.9 mph 11 mph 85% 0 in 0 W/m2
18:44 49.6 °F 45.3 °F 29.5 in NW 0.9 mph 17 mph 85% 0.01 in 0 W/m2
18:49 49.6 °F 45 °F 29.5 in NW 4.9 mph 10 mph 84% 0.01 in 0 W/m2
18:54 49.6 °F 45 °F 29.5 in WNW 4.9 mph 17 mph 84% 0.01 in 0 W/m2
18:59 49.6 °F 45 °F 29.5 in NW 17 mph 19 mph 84% 0.01 in 0 W/m2
19:04 49.6 °F 45.3 °F 29.5 in WNW 8.9 mph 13 mph 85% 0.01 in 0 W/m2
19:09 49.3 °F 45.3 °F 29.5 in WNW 6.9 mph 13 mph 86% 0.02 in 0 W/m2
19:14 48.9 °F 45.1 °F 29.5 in WSW 6.9 mph 16 mph 87% 0.02 in 0 W/m2
19:19 48.7 °F 45.3 °F 29.5 in West 6 mph 11 mph 88% 0.02 in 0 W/m2
19:24 48.7 °F 45 °F 29.5 in NW 11 mph 11 mph 87% 0.02 in 0 W/m2
19:29 48.7 °F 45 °F 29.5 in West 6 mph 14 mph 87% 0.02 in 0 W/m2
19:34 48.9 °F 45 °F 29.5 in WNW 10.1 mph 14 mph 86% 0.02 in 0 W/m2
19:39 49.1 °F 45.1 °F 29.5 in SW 6.9 mph 12 mph 86% 0.02 in 0 W/m2
19:44 49.3 °F 45 °F 29.5 in WSW 11 mph 14 mph 85% 0.02 in 0 W/m2
19:49 49.3 °F 45.3 °F 29.5 in WNW 6.9 mph 10 mph 86% 0.02 in 0 W/m2
19:54 49.1 °F 45.1 °F 29.5 in WNW 8.1 mph 15 mph 86% 0.02 in 0 W/m2
19:59 49.1 °F 45.1 °F 29.5 in West 13 mph 17 mph 86% 0.02 in 0 W/m2
20:04 48.9 °F 45.1 °F 29.5 in West 4 mph 13 mph 87% 0.02 in 0 W/m2
20:09 48.7 °F 45 °F 29.5 in NW 4 mph 15 mph 87% 0.01 in 0 W/m2
20:14 48.7 °F 45 °F 29.5 in West 10.1 mph 11 mph 87% 0 in 0 W/m2
20:19 48.7 °F 45 °F 29.5 in WSW 17 mph 21 mph 87% 0 in 0 W/m2
20:24 48.9 °F 45.1 °F 29.5 in WNW 8.1 mph 19 mph 87% 0 in 0 W/m2
20:29 48.9 °F 45.1 °F 29.5 in West 2 mph 21 mph 87% 0 in 0 W/m2
20:34 48.9 °F 45.1 °F 29.5 in West 10.1 mph 14 mph 87% 0 in 0 W/m2
20:39 48.9 °F 45.1 °F 29.5 in WNW 12.1 mph 14 mph 87% 0 in 0 W/m2
20:44 48.9 °F 45.1 °F 29.5 in WNW 6.9 mph 19 mph 87% 0 in 0 W/m2
20:49 48.9 °F 45.1 °F 29.5 in West 10.1 mph 21 mph 87% 0 in 0 W/m2
20:54 48.9 °F 45.1 °F 29.5 in WNW 8.1 mph 15 mph 87% 0 in 0 W/m2
20:59 48.9 °F 45.1 °F 29.5 in WSW 4.9 mph 17 mph 87% 0 in 0 W/m2
21:04 48.9 °F 45.1 °F 29.5 in West 12.1 mph 23 mph 87% 0 in 0 W/m2
21:09 48.7 °F 45 °F 29.5 in West 8.1 mph 20 mph 87% 0 in 0 W/m2
21:14 48.7 °F 45 °F 29.5 in WNW 6 mph 12 mph 87% 0 in 0 W/m2
21:19 48.7 °F 45.3 °F 29.5 in West 13 mph 21 mph 88% 0 in 0 W/m2
21:24 48.6 °F 45.1 °F 29.5 in WNW 10.1 mph 17 mph 88% 0 in 0 W/m2
21:29 48.4 °F 45.3 °F 29.5 in WNW 8.1 mph 16 mph 89% 0 in 0 W/m2
21:34 48 °F 45.1 °F 29.5 in WSW 11 mph 20 mph 90% 0 in 0 W/m2
21:39 47.8 °F 45 °F 29.5 in WNW 8.9 mph 16 mph 90% 0 in 0 W/m2
21:44 47.7 °F 45.1 °F 29.5 in West 16.1 mph 22 mph 91% 0 in 0 W/m2
21:49 47.7 °F 45.1 °F 29.5 in WNW 10.1 mph 15 mph 91% 0.01 in 0 W/m2
21:54 47.5 °F 45 °F 29.6 in NW 4 mph 22 mph 91% 0.01 in 0 W/m2
21:59 47.5 °F 45.3 °F 29.6 in West 8.1 mph 17 mph 92% 0.01 in 0 W/m2
22:04 47.3 °F 45.1 °F 29.6 in WNW 2 mph 12 mph 92% 0.01 in 0 W/m2
22:09 47.1 °F 45 °F 29.6 in NW 4.9 mph 14 mph 92% 0.01 in 0 W/m2
22:14 47.1 °F 45.1 °F 29.6 in NNW 15 mph 18 mph 93% 0.02 in 0 W/m2
22:19 47.1 °F 45.1 °F 29.6 in West 8.9 mph 16 mph 93% 0.02 in 0 W/m2
22:24 46.9 °F 45 °F 29.6 in WSW 10.1 mph 21 mph 93% 0.02 in 0 W/m2
22:29 46.9 °F 45 °F 29.6 in West 10.1 mph 13 mph 93% 0.02 in 0 W/m2
22:34 46.9 °F 45 °F 29.6 in West 8.1 mph 15 mph 93% 0.02 in 0 W/m2
22:39 46.9 °F 45 °F 29.6 in West 8.1 mph 9 mph 93% 0.02 in 0 W/m2
22:45 46.9 °F 45 °F 29.6 in WNW 12.1 mph 18 mph 93% 0.02 in 0 W/m2
22:50 46.9 °F 45 °F 29.6 in WNW 12.1 mph 14 mph 93% 0.02 in 0 W/m2
22:55 46.9 °F 45 °F 29.6 in WNW 4.9 mph 12 mph 93% 0.02 in 0 W/m2
23:00 47.1 °F 45.1 °F 29.6 in WNW 6.9 mph 16 mph 93% 0.02 in 0 W/m2
23:05 47.5 °F 45.5 °F 29.6 in West 8.9 mph 11 mph 93% 0.02 in 0 W/m2
23:10 47.5 °F 45.5 °F 29.6 in SW 6 mph 14 mph 93% 0.02 in 0 W/m2
23:15 47.5 °F 45.5 °F 29.6 in West 11 mph 19 mph 93% 0.01 in 0 W/m2
23:20 47.5 °F 45.5 °F 29.6 in West 8.9 mph 19 mph 93% 0.01 in 0 W/m2
23:25 47.5 °F 45.5 °F 29.6 in WSW 8.1 mph 17 mph 93% 0.01 in 0 W/m2
23:30 47.5 °F 45.5 °F 29.6 in West 11 mph 18 mph 93% 0.01 in 0 W/m2
23:35 47.5 °F 45.5 °F 29.6 in West 10.1 mph 20 mph 93% 0.01 in 0 W/m2
23:40 47.5 °F 45.3 °F 29.6 in SW 8.1 mph 12 mph 92% 0.01 in 0 W/m2
23:45 47.7 °F 45.5 °F 29.6 in NNW 8.9 mph 13 mph 92% 0 in 0 W/m2
23:50 47.7 °F 45.5 °F 29.6 in West 8.1 mph 14 mph 92% 0 in 0 W/m2
23:55 47.8 °F 45.3 °F 29.6 in WSW 10.1 mph 12 mph 91% 0 in 0 W/m2
Juneau County Weather
Compliments of Weather Underground - 4 mb